createdAt,value
2023-02-09T00:18:09.522Z,101983.09
2023-02-09T00:28:10.759Z,101986.38
2023-02-09T00:38:12.112Z,101987.84
2023-02-09T00:48:13.383Z,101984.59
2023-02-09T00:58:14.714Z,101975.91
2023-02-09T01:08:15.922Z,101977.50
2023-02-09T01:18:17.117Z,101976.66
2023-02-09T01:28:18.397Z,101978.44
2023-02-09T01:38:19.603Z,101965.28
2023-02-09T01:48:20.920Z,101951.78
2023-02-09T01:58:22.136Z,101963.44
2023-02-09T02:08:23.386Z,101947.41
2023-02-09T02:18:24.619Z,101946.16
2023-02-09T02:28:25.873Z,101951.06
2023-02-09T02:38:27.065Z,101954.94
2023-02-09T02:48:28.326Z,101932.16
2023-02-09T02:58:29.562Z,101933.06
2023-02-09T03:08:30.834Z,101937.34
2023-02-09T03:18:32.355Z,101919.38
2023-02-09T03:28:33.744Z,101932.69
2023-02-09T03:38:35.012Z,101923.19
2023-02-09T03:48:36.228Z,101927.06
2023-02-09T03:58:37.450Z,101925.34
2023-02-09T04:08:38.693Z,101937.63
2023-02-09T04:18:39.933Z,101936.41
2023-02-09T04:28:41.135Z,101941.31
2023-02-09T04:38:42.352Z,101938.63
2023-02-09T04:48:43.556Z,101946.25
2023-02-09T04:59:03.645Z,101944.28
2023-02-09T05:09:04.835Z,101955.16
2023-02-09T05:19:06.056Z,101963.78
2023-02-09T05:29:07.256Z,101962.47
2023-02-09T05:39:08.480Z,101963.44
2023-02-09T05:49:09.699Z,101968.53
2023-02-09T05:59:10.909Z,101978.41
2023-02-09T06:09:12.114Z,101973.06
2023-02-09T06:19:13.354Z,101988.38
2023-02-09T06:29:14.587Z,102005.69
2023-02-09T06:39:15.837Z,102007.69
2023-02-09T06:49:17.101Z,101995.63
2023-02-09T06:59:18.375Z,102012.31
2023-02-09T07:09:19.625Z,102017.66
2023-02-09T07:19:20.897Z,102026.06
2023-02-09T07:29:22.121Z,102033.88
2023-02-09T07:39:23.349Z,102035.22
2023-02-09T07:49:24.770Z,102044.50
2023-02-09T07:59:26.007Z,102039.09
2023-02-09T08:09:27.192Z,102048.91
2023-02-09T08:19:28.395Z,102054.09
2023-02-09T08:29:29.607Z,102058.94
2023-02-09T08:39:30.824Z,102059.75
2023-02-09T08:49:32.011Z,102051.56
2023-02-09T08:59:33.913Z,102057.41
2023-02-09T09:09:35.161Z,102051.91
2023-02-09T09:19:36.354Z,102062.47
2023-02-09T09:29:39.988Z,102072.97
2023-02-09T09:39:41.231Z,102078.31
2023-02-09T09:49:42.438Z,102083.31
2023-02-09T09:59:43.657Z,102086.38
2023-02-09T10:09:44.847Z,102084.97
2023-02-09T10:41:11.565Z,102069.06
2023-02-09T10:51:12.795Z,102056.22
2023-02-09T11:01:14.034Z,102040.25
2023-02-09T11:11:15.287Z,102036.53
2023-02-09T11:21:16.489Z,102026.16
2023-02-09T11:31:17.760Z,102015.53
2023-02-09T11:41:37.570Z,101995.97
2023-02-09T11:51:38.819Z,101981.44
2023-02-09T12:01:40.261Z,101958.88
2023-02-09T12:11:41.695Z,101960.09
2023-02-09T12:21:42.923Z,101963.78
2023-02-09T12:31:46.294Z,101963.84
2023-02-09T12:41:49.502Z,101968.28
2023-02-09T12:51:50.734Z,101962.84
2023-02-09T13:01:51.930Z,101970.25
2023-02-09T13:11:53.235Z,101978.19
2023-02-09T13:21:56.289Z,101971.91
2023-02-09T13:31:58.041Z,101953.25
2023-02-09T13:41:59.401Z,101953.53
2023-02-09T13:52:00.662Z,101959.41
2023-02-09T14:02:01.857Z,101948.31
2023-02-09T14:12:03.098Z,101959.16
2023-02-09T14:22:04.315Z,101963.03
2023-02-09T14:32:06.927Z,101968.44
2023-02-09T14:42:08.139Z,101956.38
2023-02-09T14:52:10.638Z,101957.88
2023-02-09T15:02:12.038Z,101967.34
2023-02-09T15:12:13.287Z,101974.94
2023-02-09T15:22:15.130Z,101981.03
2023-02-09T15:32:16.353Z,101989.41
2023-02-09T15:42:36.408Z,101990.88
2023-02-09T15:52:37.667Z,101997.81
2023-02-09T16:02:38.896Z,101993.13
2023-02-09T16:12:41.375Z,101985.66
2023-02-09T16:22:42.645Z,102002.88
2023-02-09T16:32:43.922Z,101999.50
2023-02-09T16:42:46.701Z,102011.91
2023-02-09T16:52:49.016Z,102020.28
2023-02-09T17:02:50.280Z,102041.72
2023-02-09T17:12:53.588Z,102047.19
2023-02-09T17:22:55.142Z,102060.88
2023-02-09T17:32:56.415Z,102059.78
2023-02-09T17:42:59.002Z,102080.84
2023-02-09T17:53:00.289Z,102075.06
2023-02-09T18:03:01.625Z,102081.00
2023-02-09T18:13:02.937Z,102072.47
2023-02-09T18:23:04.359Z,102101.75
2023-02-09T18:33:05.634Z,102102.25
2023-02-09T18:43:06.849Z,102106.44
2023-02-09T18:53:08.093Z,102134.31
2023-02-09T19:03:09.329Z,102151.66
2023-02-09T19:13:10.600Z,102168.06
2023-02-09T19:23:11.876Z,102183.78
2023-02-09T19:33:13.510Z,102190.31
2023-02-09T19:43:14.748Z,102187.69
2023-02-09T19:53:15.993Z,102196.34
2023-02-09T20:03:22.141Z,102199.19
2023-02-09T20:13:47.381Z,102191.78
2023-02-09T20:23:48.737Z,102197.72
2023-02-09T20:33:50.264Z,102186.75
2023-02-09T20:44:10.272Z,102200.34
2023-02-09T20:54:18.797Z,102210.06
2023-02-09T21:04:20.048Z,102235.09
2023-02-09T21:14:27.475Z,102247.97
2023-02-09T21:24:33.661Z,102249.59
2023-02-09T21:34:35.014Z,102270.06
2023-02-09T21:44:36.776Z,102276.25
2023-02-09T21:54:38.043Z,102289.91
2023-02-09T22:04:39.722Z,102285.03
2023-02-09T22:14:40.959Z,102283.63
2023-02-09T22:24:42.205Z,102277.44
2023-02-09T22:34:43.626Z,102272.44
2023-02-09T22:44:44.856Z,102292.63
2023-02-09T22:54:46.103Z,102289.41
2023-02-09T23:04:47.328Z,102302.41
2023-02-09T23:14:48.587Z,102297.22
2023-02-09T23:24:49.880Z,102305.00
2023-02-09T23:34:51.109Z,102297.88
2023-02-09T23:44:52.350Z,102311.69
2023-02-09T23:54:53.647Z,102292.84
